createdAt,value
2022-12-03T00:02:21.707Z,94476.16
2022-12-03T00:04:48.625Z,94473.69
2022-12-03T00:07:15.421Z,94477.34
2022-12-03T00:09:42.855Z,94476.28
2022-12-03T00:12:09.650Z,94473.94
2022-12-03T00:14:41.246Z,94474.66
2022-12-03T00:17:11.075Z,94487.47
2022-12-03T00:19:37.781Z,94480.75
2022-12-03T00:22:04.516Z,94478.66
2022-12-03T00:24:31.259Z,94476.75
2022-12-03T00:26:58.008Z,94483.25
2022-12-03T00:29:24.748Z,94479.25
2022-12-03T00:31:51.477Z,94466.16
2022-12-03T00:34:18.324Z,94474.06
2022-12-03T00:36:45.048Z,94474.88
2022-12-03T00:39:11.773Z,94470.28
2022-12-03T00:41:38.493Z,94471.47
2022-12-03T00:44:05.478Z,94469.19
2022-12-03T00:46:32.269Z,94475.19
2022-12-03T00:48:59.128Z,94475.56
2022-12-03T00:51:25.837Z,94491.63
2022-12-03T00:53:52.581Z,94487.47
2022-12-03T00:56:19.370Z,94477.34
2022-12-03T00:58:46.659Z,94476.16
2022-12-03T01:01:13.423Z,94473.22
2022-12-03T01:03:40.289Z,94480.38
2022-12-03T01:06:07.029Z,94483.69
2022-12-03T01:08:33.748Z,94470.88
2022-12-03T01:11:00.502Z,94477.56
2022-12-03T01:13:27.453Z,94476.75
2022-12-03T01:15:54.263Z,94475.44
2022-12-03T01:18:21.019Z,94477.78
2022-12-03T01:20:47.881Z,94468.81
2022-12-03T01:23:14.596Z,94478.00
2022-12-03T01:25:41.378Z,94473.69
2022-12-03T01:28:08.141Z,94478.75
2022-12-03T01:30:55.029Z,94484.88
2022-12-03T01:33:21.798Z,94476.59
2022-12-03T01:35:48.617Z,94487.25
2022-12-03T01:38:15.349Z,94486.03
2022-12-03T01:40:42.219Z,94501.84
2022-12-03T01:43:08.996Z,94496.16
2022-12-03T01:45:35.837Z,94498.16
2022-12-03T01:48:02.591Z,94494.75
2022-12-03T01:50:33.542Z,94502.81
2022-12-03T01:53:03.263Z,94497.13
2022-12-03T01:55:30.307Z,94493.25
2022-12-03T01:58:00.867Z,94505.19
2022-12-03T02:00:28.997Z,94506.34
2022-12-03T02:03:00.105Z,94503.38
2022-12-03T02:05:32.048Z,94497.50
2022-12-03T02:10:32.934Z,94500.31
2022-12-03T02:13:05.345Z,94496.22
2022-12-03T02:15:32.478Z,94481.59
2022-12-03T02:17:59.828Z,94491.03
2022-12-03T02:20:26.693Z,94491.97
2022-12-03T02:23:14.444Z,94498.56
2022-12-03T02:25:41.232Z,94495.03
2022-12-03T02:28:09.610Z,94500.22
2022-12-03T02:30:37.111Z,94503.88
2022-12-03T02:33:04.697Z,94490.28
2022-12-03T02:35:35.269Z,94501.25
2022-12-03T02:38:20.267Z,94496.81
2022-12-03T02:40:50.282Z,94497.88
2022-12-03T02:43:18.492Z,94494.19
2022-12-03T02:45:49.624Z,94497.75
2022-12-03T02:48:18.594Z,94499.28
2022-12-03T02:50:52.690Z,94491.88
2022-12-03T02:53:23.451Z,94483.47
2022-12-03T02:55:51.609Z,94482.44
2022-12-03T02:58:19.135Z,94485.59
2022-12-03T03:00:46.739Z,94473.59
2022-12-03T03:03:14.197Z,94471.34
2022-12-03T03:05:41.684Z,94478.53
2022-12-03T03:08:09.756Z,94475.84
2022-12-03T03:10:39.780Z,94480.75
2022-12-03T03:13:12.615Z,94477.13
2022-12-03T03:15:40.897Z,94481.38
2022-12-03T03:18:09.286Z,94485.84
2022-12-03T03:20:37.169Z,94482.78
2022-12-03T03:23:12.720Z,94481.38
2022-12-03T03:25:43.964Z,94478.56
2022-12-03T03:28:11.444Z,94481.59
2022-12-03T03:30:39.720Z,94483.59
2022-12-03T03:33:07.178Z,94480.19
2022-12-03T03:35:34.180Z,94482.88
2022-12-03T03:38:01.007Z,94488.44
2022-12-03T03:40:28.612Z,94479.72
2022-12-03T03:42:56.890Z,94486.56
2022-12-03T03:45:28.873Z,94482.78
2022-12-03T03:47:58.415Z,94481.13
2022-12-03T03:50:28.562Z,94479.22
2022-12-03T03:52:56.472Z,94480.31
2022-12-03T03:55:23.630Z,94480.91
2022-12-03T03:57:50.513Z,94477.59
2022-12-03T04:00:17.925Z,94489.28
2022-12-03T04:02:44.993Z,94498.78
2022-12-03T04:05:17.671Z,94487.72
2022-12-03T04:07:44.581Z,94486.31
2022-12-03T04:10:33.944Z,94473.59
2022-12-03T04:13:01.614Z,94483.47
2022-12-03T04:15:28.564Z,94486.44
2022-12-03T04:18:14.333Z,94485.13
2022-12-03T04:20:41.066Z,94480.41
2022-12-03T04:23:08.104Z,94486.09
2022-12-03T04:25:53.487Z,94479.94
2022-12-03T04:28:38.714Z,94487.97
2022-12-03T04:31:25.729Z,94484.41
2022-12-03T04:34:11.520Z,94474.06
2022-12-03T04:36:38.713Z,94474.16
2022-12-03T04:39:05.805Z,94482.31
2022-12-03T04:41:32.530Z,94488.31
2022-12-03T04:44:18.197Z,94480.88
2022-12-03T04:46:44.954Z,94470.03
2022-12-03T04:49:11.673Z,94454.50
2022-12-03T04:51:38.420Z,94449.78
2022-12-03T04:54:05.252Z,94460.41
2022-12-03T04:56:31.993Z,94459.22
2022-12-03T04:58:58.751Z,94445.19
2022-12-03T05:01:25.519Z,94439.91
2022-12-03T05:03:52.240Z,94447.44
2022-12-03T05:06:19.014Z,94441.78
2022-12-03T05:08:45.856Z,94449.69
2022-12-03T05:11:12.566Z,94456.16
2022-12-03T05:13:39.329Z,94457.78
2022-12-03T05:16:06.608Z,94454.00
2022-12-03T05:18:33.344Z,94448.63
2022-12-03T05:21:00.082Z,94456.88
2022-12-03T05:23:26.894Z,94465.09
2022-12-03T05:25:53.809Z,94465.59
2022-12-03T05:28:22.300Z,94469.22
2022-12-03T05:30:49.171Z,94472.28
2022-12-03T05:33:16.158Z,94482.78
2022-12-03T05:35:43.471Z,94473.34
2022-12-03T05:38:10.285Z,94479.03
2022-12-03T05:40:37.120Z,94467.00
2022-12-03T05:43:04.018Z,94470.78
2022-12-03T05:45:35.690Z,94469.81
2022-12-03T05:48:04.390Z,94469.00
2022-12-03T05:50:36.329Z,94476.53
2022-12-03T05:53:03.631Z,94462.28
2022-12-03T05:55:30.447Z,94453.69
2022-12-03T05:57:57.645Z,94458.41
2022-12-03T06:00:31.630Z,94452.97
2022-12-03T06:02:59.317Z,94457.78
2022-12-03T06:05:28.248Z,94455.09
2022-12-03T06:07:55.116Z,94453.09
2022-12-03T06:10:24.943Z,94445.22
2022-12-03T06:12:52.295Z,94465.09
2022-12-03T06:15:20.306Z,94458.97
2022-12-03T06:17:47.364Z,94462.03
2022-12-03T06:20:18.955Z,94463.44
2022-12-03T06:22:46.373Z,94454.00
2022-12-03T06:25:13.875Z,94448.03
2022-12-03T06:27:40.742Z,94456.50
2022-12-03T06:30:09.056Z,94449.81
2022-12-03T06:32:36.162Z,94448.72
2022-12-03T06:35:03.482Z,94441.53
2022-12-03T06:37:30.206Z,94452.13
2022-12-03T06:39:56.938Z,94454.75
2022-12-03T06:42:23.674Z,94452.75
2022-12-03T06:44:50.443Z,94451.91
2022-12-03T06:47:17.248Z,94446.25
2022-12-03T06:49:44.070Z,94445.34
2022-12-03T06:52:10.777Z,94454.16
2022-12-03T06:54:37.482Z,94454.50
2022-12-03T06:57:04.305Z,94451.56
2022-12-03T06:59:34.187Z,94450.97
2022-12-03T07:02:01.282Z,94452.38
2022-12-03T07:04:29.224Z,94457.69
2022-12-03T07:06:56.024Z,94453.09
2022-12-03T07:09:22.824Z,94458.97
2022-12-03T07:11:49.557Z,94461.34
2022-12-03T07:14:17.340Z,94457.56
2022-12-03T07:16:44.225Z,94454.00
2022-12-03T07:19:11.354Z,94447.91
2022-12-03T07:21:38.349Z,94454.50
2022-12-03T07:24:05.760Z,94464.41
2022-12-03T07:26:32.985Z,94465.81
2022-12-03T07:29:00.146Z,94457.94
2022-12-03T07:31:27.311Z,94464.16
2022-12-03T07:33:54.245Z,94469.47
2022-12-03T07:36:21.023Z,94481.25
2022-12-03T07:38:47.859Z,94473.22
2022-12-03T07:41:14.734Z,94480.31
2022-12-03T07:43:41.452Z,94467.22
2022-12-03T07:46:08.629Z,94474.53
2022-12-03T07:48:35.451Z,94462.06
2022-12-03T07:51:02.343Z,94462.63
2022-12-03T07:53:29.192Z,94456.97
2022-12-03T07:55:55.990Z,94458.03
2022-12-03T07:58:22.761Z,94460.28
2022-12-03T08:00:49.559Z,94435.53
2022-12-03T08:03:16.331Z,94449.44
2022-12-03T08:05:43.061Z,94446.28
2022-12-03T08:10:43.728Z,94454.03
2022-12-03T08:13:25.589Z,94457.34
2022-12-03T08:15:52.939Z,94454.63
2022-12-03T08:18:21.668Z,94452.84
2022-12-03T08:20:51.898Z,94455.69
2022-12-03T08:23:22.418Z,94453.56
2022-12-03T08:25:51.543Z,94451.19
2022-12-03T08:28:26.749Z,94445.78
2022-12-03T08:31:21.050Z,94438.81
2022-12-03T08:33:51.249Z,94435.91
2022-12-03T08:36:26.282Z,94442.25
2022-12-03T08:38:59.828Z,94438.59
2022-12-03T08:41:46.433Z,94444.81
2022-12-03T08:44:32.631Z,94447.56
2022-12-03T08:47:16.962Z,94445.06
2022-12-03T08:50:00.323Z,94438.13
2022-12-03T08:52:34.873Z,94450.72
2022-12-03T08:55:33.178Z,94455.41
2022-12-03T08:57:59.996Z,94457.31
2022-12-03T09:00:27.026Z,94459.31
2022-12-03T09:02:59.949Z,94453.53
2022-12-03T09:05:30.396Z,94449.75
2022-12-03T09:07:57.229Z,94462.94
2022-12-03T09:10:24.051Z,94456.94
2022-12-03T09:12:50.850Z,94449.75
2022-12-03T09:15:17.755Z,94452.13
2022-12-03T09:17:44.562Z,94457.09
2022-12-03T09:20:11.946Z,94451.91
2022-12-03T09:22:38.660Z,94450.81
2022-12-03T09:25:06.130Z,94458.50
2022-12-03T09:27:32.910Z,94465.31
2022-12-03T09:29:59.671Z,94453.78
2022-12-03T09:32:26.465Z,94467.47
2022-12-03T09:34:54.183Z,94466.72
2022-12-03T09:37:22.291Z,94463.41
2022-12-03T09:39:49.154Z,94465.78
2022-12-03T09:42:16.211Z,94472.50
2022-12-03T09:44:43.158Z,94464.66
2022-12-03T09:47:10.111Z,94465.09
2022-12-03T09:49:38.545Z,94463.31
2022-12-03T09:52:06.680Z,94454.81
2022-12-03T09:54:34.546Z,94440.34
2022-12-03T09:57:04.378Z,94445.41
2022-12-03T09:59:34.341Z,94437.69
2022-12-03T10:02:03.044Z,94439.38
2022-12-03T10:04:30.370Z,94434.78
2022-12-03T10:06:59.178Z,94440.34
2022-12-03T10:09:29.008Z,94429.31
2022-12-03T10:11:57.750Z,94429.53
2022-12-03T10:14:24.925Z,94433.66
2022-12-03T10:16:52.075Z,94413.97
2022-12-03T10:19:29.717Z,94413.59
2022-12-03T10:21:56.464Z,94413.59
2022-12-03T10:24:32.476Z,94405.13
2022-12-03T10:27:24.592Z,94409.44
2022-12-03T10:30:00.160Z,94398.34
2022-12-03T10:32:40.795Z,94401.53
2022-12-03T10:35:16.789Z,94393.16
2022-12-03T10:38:22.449Z,94399.03
2022-12-03T10:40:49.832Z,94391.03
2022-12-03T10:43:19.498Z,94404.25
2022-12-03T10:45:48.352Z,94394.59
2022-12-03T10:48:26.354Z,94400.38
2022-12-03T10:51:12.054Z,94375.75
2022-12-03T10:53:40.640Z,94397.44
2022-12-03T10:56:14.869Z,94392.97
2022-12-03T10:58:42.348Z,94379.78
2022-12-03T11:01:19.210Z,94396.69
2022-12-03T11:03:46.741Z,94388.22
2022-12-03T11:06:20.591Z,94389.75
2022-12-03T11:08:56.822Z,94373.72
2022-12-03T11:11:30.638Z,94377.00
2022-12-03T11:14:05.036Z,94367.56
2022-12-03T11:16:40.672Z,94364.38
2022-12-03T11:19:13.473Z,94367.44
2022-12-03T11:22:05.074Z,94368.34
2022-12-03T11:24:35.037Z,94363.75
2022-12-03T11:27:01.745Z,94362.16
2022-12-03T11:29:49.208Z,94373.63
2022-12-03T11:32:43.290Z,94370.50
2022-12-03T11:35:37.975Z,94354.94
2022-12-03T11:38:52.348Z,94339.84
2022-12-03T11:41:22.743Z,94349.16
2022-12-03T11:43:52.126Z,94345.28
2022-12-03T11:46:23.188Z,94346.94
2022-12-03T11:48:52.907Z,94337.94
2022-12-03T11:51:23.839Z,94335.13
2022-12-03T11:53:52.943Z,94325.75
2022-12-03T11:56:30.444Z,94336.84
2022-12-03T11:59:03.245Z,94336.25
2022-12-03T12:01:39.091Z,94323.44
2022-12-03T12:04:08.358Z,94317.78
2022-12-03T12:06:43.774Z,94303.91
2022-12-03T12:09:11.046Z,94301.03
2022-12-03T12:11:41.492Z,94302.00
2022-12-03T12:14:11.459Z,94292.41
2022-12-03T12:16:55.339Z,94283.09
2022-12-03T12:19:38.264Z,94294.63
2022-12-03T12:22:24.266Z,94300.75
2022-12-03T12:25:03.079Z,94279.88
2022-12-03T12:27:49.468Z,94295.47
2022-12-03T12:30:20.329Z,94298.56
2022-12-03T12:33:00.856Z,94300.34
2022-12-03T12:35:32.651Z,94290.97
2022-12-03T12:38:08.837Z,94293.44
2022-12-03T12:40:39.547Z,94290.50
2022-12-03T12:43:24.386Z,94284.13
2022-12-03T12:45:59.445Z,94276.34
2022-12-03T12:48:31.781Z,94271.94
2022-12-03T12:51:11.448Z,94268.53
2022-12-03T12:53:40.465Z,94277.00
2022-12-03T12:56:20.657Z,94282.91
2022-12-03T12:58:47.478Z,94280.31
2022-12-03T13:01:25.270Z,94285.16
2022-12-03T13:03:53.446Z,94281.25
2022-12-03T13:06:28.225Z,94277.97
2022-12-03T13:08:55.737Z,94279.91
2022-12-03T13:11:25.440Z,94280.75
2022-12-03T13:13:52.734Z,94281.06
2022-12-03T13:16:29.386Z,94276.97
2022-12-03T13:18:58.791Z,94280.47
2022-12-03T13:21:43.112Z,94281.78
2022-12-03T13:24:32.740Z,94279.78
2022-12-03T13:27:22.786Z,94272.13
2022-12-03T13:30:03.688Z,94286.34
2022-12-03T13:32:37.451Z,94293.66
2022-12-03T13:35:13.734Z,94292.50
2022-12-03T13:37:40.503Z,94284.41
2022-12-03T13:40:36.473Z,94287.00
2022-12-03T13:43:15.894Z,94284.88
2022-12-03T13:45:47.345Z,94280.03
2022-12-03T13:48:32.019Z,94269.84
2022-12-03T13:51:14.319Z,94266.88
2022-12-03T13:53:41.276Z,94259.44
2022-12-03T13:56:29.709Z,94274.31
2022-12-03T13:59:00.281Z,94278.53
2022-12-03T14:01:28.103Z,94267.94
2022-12-03T14:03:55.376Z,94278.81
2022-12-03T14:06:23.701Z,94282.84
2022-12-03T14:08:50.550Z,94285.19
2022-12-03T14:11:36.180Z,94275.03
2022-12-03T14:14:03.253Z,94277.75
2022-12-03T14:16:30.027Z,94286.69
2022-12-03T14:18:56.771Z,94274.38
2022-12-03T14:21:23.578Z,94276.38
2022-12-03T14:23:50.305Z,94272.03
2022-12-03T14:26:17.072Z,94268.50
2022-12-03T14:28:43.812Z,94269.22
2022-12-03T14:31:10.524Z,94259.69
2022-12-03T14:33:37.322Z,94277.78
2022-12-03T14:36:04.302Z,94282.16
2022-12-03T14:38:31.119Z,94286.28
2022-12-03T14:40:57.849Z,94275.09
2022-12-03T14:43:24.599Z,94279.09
2022-12-03T14:45:51.726Z,94278.50
2022-12-03T14:48:18.597Z,94280.03
2022-12-03T14:50:45.366Z,94285.94
2022-12-03T14:53:12.102Z,94274.84
2022-12-03T14:55:38.816Z,94263.44
2022-12-03T14:58:05.523Z,94278.03
2022-12-03T15:00:32.259Z,94282.84
2022-12-03T15:02:59.038Z,94278.63
2022-12-03T15:05:28.835Z,94272.00
2022-12-03T15:07:55.748Z,94269.63
2022-12-03T15:10:22.588Z,94269.63
2022-12-03T15:12:49.358Z,94269.91
2022-12-03T15:15:16.237Z,94269.41
2022-12-03T15:17:45.766Z,94278.38
2022-12-03T15:20:13.284Z,94280.00
2022-12-03T15:22:40.081Z,94273.66
2022-12-03T15:25:07.858Z,94252.25
2022-12-03T15:27:34.634Z,94275.44
2022-12-03T15:30:01.358Z,94272.50
2022-12-03T15:32:28.182Z,94265.69
2022-12-03T15:34:54.908Z,94261.91
2022-12-03T15:37:21.642Z,94267.78
2022-12-03T15:39:49.566Z,94274.00
2022-12-03T15:42:16.377Z,94272.59
2022-12-03T15:44:43.130Z,94265.91
2022-12-03T15:47:09.872Z,94259.44
2022-12-03T15:49:36.674Z,94279.09
2022-12-03T15:52:04.640Z,94264.25
2022-12-03T15:54:31.413Z,94270.72
2022-12-03T15:56:58.125Z,94287.34
2022-12-03T15:59:25.601Z,94291.34
2022-12-03T16:01:52.379Z,94283.06
2022-12-03T16:04:19.135Z,94276.72
2022-12-03T16:06:45.928Z,94271.28
2022-12-03T16:09:12.674Z,94280.00
2022-12-03T16:11:39.378Z,94275.28
2022-12-03T16:14:06.162Z,94276.13
2022-12-03T16:16:32.948Z,94268.03
2022-12-03T16:18:59.785Z,94268.50
2022-12-03T16:21:27.393Z,94267.09
2022-12-03T16:23:55.578Z,94264.50
2022-12-03T16:26:22.863Z,94267.44
2022-12-03T16:28:49.652Z,94259.09
2022-12-03T16:31:16.487Z,94263.56
2022-12-03T16:33:43.304Z,94257.19
2022-12-03T16:36:10.209Z,94247.09
2022-12-03T16:38:36.976Z,94250.63
2022-12-03T16:41:03.880Z,94243.34
2022-12-03T16:43:30.777Z,94248.25
2022-12-03T16:46:20.400Z,94241.56
2022-12-03T16:48:48.335Z,94247.81
2022-12-03T16:51:15.863Z,94238.16
2022-12-03T16:53:42.882Z,94234.06
2022-12-03T16:56:09.603Z,94242.38
2022-12-03T16:58:36.521Z,94239.56
2022-12-03T17:01:03.722Z,94230.97
2022-12-03T17:03:33.822Z,94231.31
2022-12-03T17:06:01.371Z,94232.50
2022-12-03T17:08:28.520Z,94231.56
2022-12-03T17:10:55.335Z,94229.06
2022-12-03T17:13:23.359Z,94236.28
2022-12-03T17:15:51.061Z,94225.81
2022-12-03T17:18:17.853Z,94218.88
2022-12-03T17:20:44.597Z,94222.53
2022-12-03T17:23:12.013Z,94228.84
2022-12-03T17:25:38.773Z,94218.16
2022-12-03T17:28:05.662Z,94216.72
2022-12-03T17:30:32.437Z,94208.63
2022-12-03T17:32:59.159Z,94212.97
2022-12-03T17:35:26.870Z,94210.13
2022-12-03T17:37:53.561Z,94213.69
2022-12-03T17:40:20.588Z,94207.91
2022-12-03T17:42:47.357Z,94213.69
2022-12-03T17:45:14.258Z,94221.94
2022-12-03T17:47:41.280Z,94219.34
2022-12-03T17:50:09.168Z,94210.16
2022-12-03T17:52:36.054Z,94208.88
2022-12-03T17:55:11.708Z,94214.19
2022-12-03T17:57:39.914Z,94213.72
2022-12-03T18:00:07.704Z,94211.94
2022-12-03T18:02:34.496Z,94209.69
2022-12-03T18:05:01.227Z,94210.06
2022-12-03T18:07:28.247Z,94214.16
2022-12-03T18:09:55.378Z,94220.97
2022-12-03T18:12:22.364Z,94215.56
2022-12-03T18:14:49.114Z,94200.41
2022-12-03T18:17:15.941Z,94202.25
2022-12-03T18:19:43.127Z,94208.25
2022-12-03T18:22:10.005Z,94200.75
2022-12-03T18:24:37.517Z,94217.78
2022-12-03T18:27:04.407Z,94221.22
2022-12-03T18:29:31.190Z,94221.66
2022-12-03T18:31:58.031Z,94220.84
2022-12-03T18:34:24.938Z,94236.75
2022-12-03T18:36:51.744Z,94221.44
2022-12-03T18:39:28.309Z,94220.50
2022-12-03T18:41:55.089Z,94222.63
2022-12-03T18:44:22.054Z,94211.31
2022-12-03T18:46:53.806Z,94215.09
2022-12-03T18:49:20.999Z,94220.50
2022-12-03T18:51:48.551Z,94212.03
2022-12-03T18:54:15.894Z,94214.16
2022-12-03T18:56:42.680Z,94200.63
2022-12-03T18:59:09.825Z,94215.94
2022-12-03T19:01:36.616Z,94215.44
2022-12-03T19:04:03.627Z,94214.38
2022-12-03T19:06:30.676Z,94207.59
2022-12-03T19:08:57.779Z,94202.63
2022-12-03T19:11:25.108Z,94198.88
2022-12-03T19:13:52.163Z,94195.22
2022-12-03T19:16:19.266Z,94196.97
2022-12-03T19:18:46.279Z,94198.31
2022-12-03T19:21:16.026Z,94195.09
2022-12-03T19:24:04.133Z,94195.34
2022-12-03T19:26:30.535Z,94199.94
2022-12-03T19:28:57.482Z,94197.44
2022-12-03T19:31:24.286Z,94205.91
2022-12-03T19:33:51.919Z,94198.16
2022-12-03T19:36:27.326Z,94187.09
2022-12-03T19:38:58.553Z,94186.41
2022-12-03T19:41:28.214Z,94187.59
2022-12-03T19:43:56.568Z,94182.28
2022-12-03T19:46:28.932Z,94171.34
2022-12-03T19:48:55.811Z,94180.75
2022-12-03T19:51:37.732Z,94177.81
2022-12-03T19:54:07.452Z,94177.34
2022-12-03T19:56:35.001Z,94176.53
2022-12-03T19:59:01.836Z,94177.44
2022-12-03T20:01:32.735Z,94186.50
2022-12-03T20:04:02.221Z,94184.06
2022-12-03T20:06:33.854Z,94182.63
2022-12-03T20:09:12.169Z,94169.47
2022-12-03T20:11:41.447Z,94165.59
2022-12-03T20:14:11.506Z,94182.84
2022-12-03T20:16:38.342Z,94165.09
2022-12-03T20:19:08.060Z,94181.00
2022-12-03T20:21:36.704Z,94178.41
2022-12-03T20:24:04.471Z,94172.50
2022-12-03T20:26:31.904Z,94164.03
2022-12-03T20:28:59.270Z,94168.19
2022-12-03T20:31:30.113Z,94170.41
2022-12-03T20:34:03.778Z,94172.06
2022-12-03T20:36:32.121Z,94164.41
2022-12-03T20:39:05.687Z,94167.00
2022-12-03T20:41:36.029Z,94158.03
2022-12-03T20:44:03.442Z,94167.09
2022-12-03T20:46:31.826Z,94175.13
2022-12-03T20:48:59.597Z,94165.00
2022-12-03T20:51:30.564Z,94179.38
2022-12-03T20:53:59.345Z,94170.16
2022-12-03T20:56:31.474Z,94173.94
2022-12-03T20:59:04.993Z,94166.19
2022-12-03T21:01:31.888Z,94164.88
2022-12-03T21:03:59.191Z,94170.41
2022-12-03T21:06:30.032Z,94181.97
2022-12-03T21:08:59.322Z,94172.31
2022-12-03T21:11:31.872Z,94156.53
2022-12-03T21:14:00.220Z,94138.44
2022-12-03T21:16:59.144Z,94156.63
2022-12-03T21:19:18.354Z,94149.72
2022-12-03T21:21:45.191Z,94157.72
2022-12-03T21:24:13.616Z,94149.25
2022-12-03T21:26:40.945Z,94153.84
2022-12-03T21:29:07.885Z,94143.00
2022-12-03T21:31:35.752Z,94146.19
2022-12-03T21:34:03.225Z,94160.06
2022-12-03T21:36:30.015Z,94174.63
2022-12-03T21:38:56.803Z,94161.97
2022-12-03T21:41:23.535Z,94149.72
2022-12-03T21:43:50.309Z,94164.56
2022-12-03T21:47:12.278Z,94156.53
2022-12-03T21:49:04.264Z,94155.94
2022-12-03T21:51:31.074Z,94153.94
2022-12-03T21:53:57.848Z,94160.31
2022-12-03T21:56:24.836Z,94145.59
2022-12-03T21:58:51.564Z,94140.09
2022-12-03T22:01:21.976Z,94144.06
2022-12-03T22:03:49.294Z,94132.69
2022-12-03T22:06:17.092Z,94126.66
2022-12-03T22:08:44.254Z,94135.28
2022-12-03T22:11:17.804Z,94131.84
2022-12-03T22:13:45.807Z,94153.50
2022-12-03T22:16:17.174Z,94149.72
2022-12-03T22:18:44.641Z,94150.44
2022-12-03T22:21:14.832Z,94141.59
2022-12-03T22:23:41.740Z,94141.47
2022-12-03T22:26:13.160Z,94138.06
2022-12-03T22:28:44.467Z,94145.00
2022-12-03T22:31:12.008Z,94148.06
2022-12-03T22:33:39.548Z,94142.88
2022-12-03T22:36:19.729Z,94137.00
2022-12-03T22:38:47.981Z,94127.25
2022-12-03T22:41:15.080Z,94132.44
2022-12-03T22:43:42.111Z,94122.34
2022-12-03T22:46:12.769Z,94121.88
2022-12-03T22:48:41.960Z,94116.31
2022-12-03T22:51:22.290Z,94119.28
2022-12-03T22:53:57.933Z,94113.50
2022-12-03T22:56:26.104Z,94115.13
2022-12-03T22:58:52.845Z,94114.44
2022-12-03T23:01:26.884Z,94117.22
2022-12-03T23:03:54.200Z,94112.44
2022-12-03T23:06:21.759Z,94122.88
2022-12-03T23:08:48.986Z,94108.16
2022-12-03T23:11:16.594Z,94102.78
2022-12-03T23:13:43.507Z,94099.50
2022-12-03T23:16:22.519Z,94104.06
2022-12-03T23:18:49.628Z,94097.81
2022-12-03T23:21:29.059Z,94108.16
2022-12-03T23:23:56.752Z,94108.06
2022-12-03T23:26:23.516Z,94106.53
2022-12-03T23:28:50.295Z,94097.38
2022-12-03T23:31:25.201Z,94106.19
2022-12-03T23:33:52.793Z,94099.63
2022-12-03T23:36:20.130Z,94108.56
2022-12-03T23:38:47.213Z,94080.56
2022-12-03T23:41:18.933Z,94087.38
2022-12-03T23:43:45.872Z,94088.19
2022-12-03T23:46:19.150Z,94075.88
2022-12-03T23:48:46.202Z,94074.34
2022-12-03T23:51:19.878Z,94064.13
2022-12-03T23:53:47.212Z,94068.13
2022-12-03T23:56:19.969Z,94073.28
2022-12-03T23:58:47.082Z,94062.72
